Time;durP1;ratioP1;P1;durP2;ratioP2;P2;SDS_P1;SDS_P2;PMS_P1;PMS_P2;Temp;Humidity;BMP_temperature;BMP_pressure;BME280_temperature;BME280_humidity;BME280_pressure;Samples;Min_cycle;Max_cycle;Signal;HPM_P1;HPM_P2
2021/09/21 00:00:09;;;;;;;;;;;;;;;21.92;62.67;100454.06;2079045;28;19916;-61
2021/09/21 00:01:09;;;;;;;;;;;;;;;21.93;62.57;100458.56;2079262;28;19913;-62
2021/09/21 00:02:10;;;;;;;;;;;;;;;21.92;62.60;100459.56;2077944;28;19921;-61
2021/09/21 00:03:10;;;;;;;;;;;;;;;21.92;62.66;100462.31;2079874;28;19913;-61
2021/09/21 00:04:10;;;;;;;;;;;;;;;21.92;62.57;100468.66;2078050;28;19917;-61
2021/09/21 00:05:10;;;;;;;;;;;;;;;21.92;62.39;100465.91;2079821;28;19958;-61
2021/09/21 00:06:11;;;;;;;;;;;;;;;21.92;62.47;100468.66;2080624;28;19913;-62
2021/09/21 00:07:11;;;;;;;;;;;;;;;21.92;62.71;100462.31;2075838;28;19913;-62
2021/09/21 00:08:11;;;;;;;;;;;;;;;21.92;62.63;100467.81;2078962;28;19913;-61
2021/09/21 00:09:12;;;;;;;;;;;;;;;21.92;62.34;100462.31;2079143;28;20360;-61
2021/09/21 00:10:12;;;;;;;;;;;;;;;21.90;62.71;100464.34;2079001;28;19909;-61
2021/09/21 00:11:13;;;;;;;;;;;;;;;21.91;62.64;100460.59;2078450;28;19994;-61
2021/09/21 00:12:19;;;;;;;;;;;;;;;21.92;62.74;100467.81;2080146;28;19913;-61
2021/09/21 00:13:19;;;;;;;;;;;;;;;21.91;62.51;100463.34;2079127;28;19913;-61
2021/09/21 00:14:20;;;;;;;;;;;;;;;21.91;62.50;100460.59;2080472;28;19920;-61
2021/09/21 00:15:21;;;;;;;;;;;;;;;21.91;62.53;100463.34;2080033;28;19913;-61
2021/09/21 00:16:21;;;;;;;;;;;;;;;21.90;62.60;100461.59;2079396;28;19959;-61
2021/09/21 00:17:21;;;;;;;;;;;;;;;21.90;62.38;100459.75;2079874;28;20329;-62
2021/09/21 00:18:22;;;;;;;;;;;;;;;21.91;62.66;100460.59;2079827;28;19956;-61
2021/09/21 00:19:24;;;;;;;;;;;;;;;21.90;62.61;100454.25;2079547;28;19956;-61
2021/09/21 00:20:24;;;;;;;;;;;;;;;21.90;62.41;100464.34;2076718;28;19910;-61
2021/09/21 00:21:24;;;;;;;;;;;;;;;21.91;62.55;100457.84;2080251;28;19913;-62
2021/09/21 00:22:32;;;;;;;;;;;;;;;21.90;62.52;100453.38;2078603;28;19920;-62
2021/09/21 00:23:32;;;;;;;;;;;;;;;21.92;62.43;100465.06;2080219;28;19921;-61
2021/09/21 00:24:33;;;;;;;;;;;;;;;21.89;62.64;100455.25;2079835;28;19917;-61
2021/09/21 00:25:33;;;;;;;;;;;;;;;21.89;62.68;100454.41;2079192;28;19963;-61
2021/09/21 00:26:34;;;;;;;;;;;;;;;21.90;62.69;100456.13;2078735;28;20515;-61
2021/09/21 00:27:34;;;;;;;;;;;;;;;21.89;62.56;100452.50;2076179;28;20371;-61
2021/09/21 00:28:34;;;;;;;;;;;;;;;21.89;62.54;100451.66;2079224;28;19936;-61
2021/09/21 00:29:35;;;;;;;;;;;;;;;21.90;62.63;100453.38;2079529;28;19909;-61
2021/09/21 00:30:35;;;;;;;;;;;;;;;21.89;62.57;100448.91;2074680;28;19915;-61
2021/09/21 00:31:41;;;;;;;;;;;;;;;21.90;62.76;100445.13;2078852;28;19978;-62
2021/09/21 00:32:44;;;;;;;;;;;;;;;21.89;62.58;100448.91;2080320;28;19913;-62
2021/09/21 00:34:27;;;;;;;;;;;;;;;21.89;62.70;100446.16;2077983;28;20316;-61
2021/09/21 00:35:11;;;;;;;;;;;;;;;21.89;62.78;100446.16;2079254;28;19916;-61
2021/09/21 00:36:11;;;;;;;;;;;;;;;21.89;62.81;100446.16;2080296;28;19913;-61
2021/09/21 00:37:13;;;;;;;;;;;;;;;21.90;62.72;100445.13;2078570;28;19917;-60
2021/09/21 00:38:14;;;;;;;;;;;;;;;21.89;62.77;100451.66;2078166;28;19909;-61
2021/09/21 00:39:14;;;;;;;;;;;;;;;21.89;62.80;100446.16;2079866;28;19917;-61
2021/09/21 00:40:14;;;;;;;;;;;;;;;21.89;62.68;100441.53;2078184;28;19965;-61
2021/09/21 00:41:14;;;;;;;;;;;;;;;21.89;62.58;100435.19;2079945;28;19913;-62
2021/09/21 00:42:21;;;;;;;;;;;;;;;21.88;62.53;100437.09;2078858;28;19927;-61
2021/09/21 00:43:23;;;;;;;;;;;;;;;21.90;62.73;100436.91;2079258;28;20501;-61
2021/09/21 00:44:23;;;;;;;;;;;;;;;21.88;62.74;100433.44;2079762;28;19913;-62
2021/09/21 00:45:24;;;;;;;;;;;;;;;21.88;62.66;100434.34;2079099;28;19915;-61
2021/09/21 00:46:24;;;;;;;;;;;;;;;21.88;62.65;100427.97;2080051;28;19917;-61
2021/09/21 00:47:25;;;;;;;;;;;;;;;21.88;62.63;100431.59;2079157;28;19979;-61
2021/09/21 00:48:25;;;;;;;;;;;;;;;21.87;62.59;100432.59;2080106;28;19909;-62
2021/09/21 00:49:25;;;;;;;;;;;;;;;21.88;62.67;100433.44;2080103;28;19940;-62
2021/09/21 00:50:27;;;;;;;;;;;;;;;21.88;62.69;100436.19;2080348;28;19937;-61
2021/09/21 00:51:28;;;;;;;;;;;;;;;21.88;62.64;100433.44;2080095;28;19909;-61
2021/09/21 00:52:28;;;;;;;;;;;;;;;21.88;62.75;100430.72;2078992;28;19962;-61
2021/09/21 00:53:29;;;;;;;;;;;;;;;21.88;62.59;100427.97;2078922;28;19909;-62
2021/09/21 00:54:29;;;;;;;;;;;;;;;21.88;62.61;100438.94;2079656;28;19959;-61
2021/09/21 00:55:30;;;;;;;;;;;;;;;21.88;62.58;100438.94;2079721;28;19913;-61
2021/09/21 00:56:30;;;;;;;;;;;;;;;21.88;62.54;100434.34;2073402;28;19999;-62
2021/09/21 00:57:31;;;;;;;;;;;;;;;21.88;62.54;100438.94;2076719;28;19986;-61
2021/09/21 00:58:32;;;;;;;;;;;;;;;21.87;62.76;100435.34;2075762;28;20012;-62
2021/09/21 00:59:32;;;;;;;;;;;;;;;21.87;62.64;100431.75;2079146;28;20387;-62
2021/09/21 01:00:32;;;;;;;;;;;;;;;21.88;62.58;100427.97;2078023;28;20430;-62
2021/09/21 01:01:33;;;;;;;;;;;;;;;21.87;62.80;100426.25;2079020;28;19917;-61
2021/09/21 01:02:33;;;;;;;;;;;;;;;21.87;62.66;100437.22;2078759;28;19909;-61
2021/09/21 01:03:33;;;;;;;;;;;;;;;21.87;62.58;100437.22;2079117;28;19968;-61
2021/09/21 01:04:35;;;;;;;;;;;;;;;21.87;62.64;100437.22;2084174;28;20003;-62
2021/09/21 01:05:36;;;;;;;;;;;;;;;21.87;62.88;100434.50;2079489;28;19995;-61
2021/09/21 01:06:36;;;;;;;;;;;;;;;21.86;62.73;100433.63;2079363;28;19924;-62
2021/09/21 01:07:38;;;;;;;;;;;;;;;21.86;62.72;100430.88;2078906;28;19909;-61
2021/09/21 01:08:39;;;;;;;;;;;;;;;21.86;62.56;100430.88;2071068;28;19909;-61
2021/09/21 01:09:39;;;;;;;;;;;;;;;21.87;62.72;100437.22;2076373;28;20265;-61
2021/09/21 01:10:40;;;;;;;;;;;;;;;21.87;62.70;100437.22;2075520;28;19920;-61
2021/09/21 01:11:40;;;;;;;;;;;;;;;21.87;62.97;100437.22;2071641;28;19996;-61
2021/09/21 01:12:41;;;;;;;;;;;;;;;21.87;62.68;100437.22;2072773;28;19913;-61
2021/09/21 01:13:41;;;;;;;;;;;;;;;21.88;62.78;100433.44;2077602;28;20395;-62
2021/09/21 01:14:41;;;;;;;;;;;;;;;21.86;62.80;100435.53;2076170;28;19934;-61
2021/09/21 01:15:42;;;;;;;;;;;;;;;21.86;62.71;100433.63;2073817;28;19967;-61
2021/09/21 01:16:42;;;;;;;;;;;;;;;21.86;62.85;100438.28;2078677;28;19909;-62
2021/09/21 01:17:43;;;;;;;;;;;;;;;21.86;62.77;100441.00;2078941;28;19966;-62
2021/09/21 01:18:43;;;;;;;;;;;;;;;21.86;62.71;100430.03;2079032;28;19907;-61
2021/09/21 01:19:43;;;;;;;;;;;;;;;21.86;62.96;100435.53;2075782;28;19921;-61
2021/09/21 01:20:44;;;;;;;;;;;;;;;21.86;62.72;100432.78;2074271;28;19916;-61
2021/09/21 01:21:46;;;;;;;;;;;;;;;21.86;62.74;100430.03;2071970;28;20490;-61
2021/09/21 01:22:46;;;;;;;;;;;;;;;21.86;62.69;100432.78;2077530;28;19909;-61
2021/09/21 01:23:50;;;;;;;;;;;;;;;21.85;63.01;100429.16;2079866;28;19919;-61
2021/09/21 01:24:51;;;;;;;;;;;;;;;21.86;62.56;100435.53;2073602;28;19932;-61
2021/09/21 01:25:54;;;;;;;;;;;;;;;21.85;62.85;100429.16;2079506;28;19948;-62
2021/09/21 01:26:55;;;;;;;;;;;;;;;21.86;62.68;100433.63;2079667;28;19960;-61
2021/09/21 01:27:57;;;;;;;;;;;;;;;21.84;62.77;100433.78;2078893;28;19965;-61
2021/09/21 01:28:57;;;;;;;;;;;;;;;21.85;62.74;100434.63;2079799;28;20155;-61
2021/09/21 01:29:57;;;;;;;;;;;;;;;21.85;62.69;100440.13;2079229;28;19912;-61
2021/09/21 01:30:58;;;;;;;;;;;;;;;21.84;62.57;100428.28;2079587;28;20113;-61
2021/09/21 01:31:58;;;;;;;;;;;;;;;21.86;62.80;100438.28;2079416;28;19978;-61
2021/09/21 01:32:58;;;;;;;;;;;;;;;21.84;62.75;100431.03;2078162;28;20433;-61
2021/09/21 01:33:59;;;;;;;;;;;;;;;21.84;62.67;100425.56;2079103;28;20299;-62
2021/09/21 01:35:02;;;;;;;;;;;;;;;21.84;62.85;100436.53;2078624;28;20326;-61
2021/09/21 01:36:03;;;;;;;;;;;;;;;21.85;62.76;100429.16;2079269;28;20268;-62
2021/09/21 01:37:04;;;;;;;;;;;;;;;21.86;62.63;100430.03;2079367;28;20577;-62
2021/09/21 01:38:04;;;;;;;;;;;;;;;21.84;62.83;100433.78;2079362;28;19961;-63
2021/09/21 01:39:14;;;;;;;;;;;;;;;21.83;62.86;100434.81;2079733;28;19916;-62
2021/09/21 01:40:14;;;;;;;;;;;;;;;21.84;62.89;100433.78;2078293;28;19955;-62
2021/09/21 01:41:15;;;;;;;;;;;;;;;21.84;62.86;100431.03;2078772;28;19913;-62
2021/09/21 01:42:15;;;;;;;;;;;;;;;21.84;62.74;100430.19;2079465;28;19908;-62
2021/09/21 01:43:18;;;;;;;;;;;;;;;21.84;62.65;100436.53;2076678;28;19909;-63
2021/09/21 01:44:19;;;;;;;;;;;;;;;21.84;62.70;100432.94;2079524;28;19962;-63
2021/09/21 01:45:20;;;;;;;;;;;;;;;21.83;62.73;100426.59;2077920;28;19959;-62
2021/09/21 01:46:21;;;;;;;;;;;;;;;21.84;62.71;100431.03;2078997;28;19931;-62
2021/09/21 01:47:22;;;;;;;;;;;;;;;21.84;62.65;100428.28;2076754;28;21193;-62
2021/09/21 01:48:22;;;;;;;;;;;;;;;21.83;62.75;100426.59;2079657;28;19910;-62
2021/09/21 01:49:23;;;;;;;;;;;;;;;21.84;62.70;100430.19;2079255;28;19909;-62
2021/09/21 01:50:33;;;;;;;;;;;;;;;21.84;63.05;100432.94;2079045;28;20540;-63
2021/09/21 01:51:39;;;;;;;;;;;;;;;21.83;62.83;100426.59;2075613;28;19909;-62
2021/09/21 01:54:24;;;;;;;;;;;;;;;21.83;62.92;100426.59;2075850;28;19955;-62
2021/09/21 01:59:29;;;;;;;;;;;;;;;21.83;63.11;100426.59;2078716;28;19908;-62
2021/09/21 02:00:30;;;;;;;;;;;;;;;21.83;63.06;100426.59;2076059;28;20016;-63
2021/09/21 02:01:30;;;;;;;;;;;;;;;21.82;63.09;100427.59;2081043;28;19917;-62
2021/09/21 02:02:30;;;;;;;;;;;;;;;21.83;63.18;100432.06;2074659;28;19964;-60
2021/09/21 02:03:30;;;;;;;;;;;;;;;21.83;63.15;100426.59;2077806;28;19964;-61
2021/09/21 02:04:31;;;;;;;;;;;;;;;21.83;63.16;100426.59;2077190;28;19917;-61
2021/09/21 02:05:31;;;;;;;;;;;;;;;21.83;62.95;100429.31;2075401;28;19924;-61
2021/09/21 02:06:37;;;;;;;;;;;;;;;21.82;63.02;100430.34;2078101;28;19936;-61
2021/09/21 02:07:37;;;;;;;;;;;;;;;21.83;63.19;100426.59;2076889;28;19913;-61
2021/09/21 02:08:38;;;;;;;;;;;;;;;21.82;63.12;100427.59;2076599;28;19901;-61
2021/09/21 02:09:38;;;;;;;;;;;;;;;21.82;63.12;100433.06;2078604;28;19913;-61
2021/09/21 02:10:38;;;;;;;;;;;;;;;21.82;63.00;100430.34;2077714;28;19947;-61
2021/09/21 02:11:40;;;;;;;;;;;;;;;21.82;62.92;100423.97;2078500;28;20231;-61
2021/09/21 02:12:40;;;;;;;;;;;;;;;21.83;63.06;100425.72;2072204;28;20348;-61
2021/09/21 02:13:41;;;;;;;;;;;;;;;21.82;63.02;100424.84;2077912;28;19909;-61
2021/09/21 02:14:41;;;;;;;;;;;;;;;21.82;63.00;100433.06;2074338;28;19909;-61
2021/09/21 02:15:41;;;;;;;;;;;;;;;21.82;63.16;100427.59;2073418;28;19917;-62
2021/09/21 02:16:42;;;;;;;;;;;;;;;21.82;62.92;100427.59;2075994;28;19917;-61
2021/09/21 02:17:42;;;;;;;;;;;;;;;21.81;63.16;100423.13;2078397;28;20359;-62
2021/09/21 02:18:43;;;;;;;;;;;;;;;21.82;62.95;100429.47;2077869;28;19909;-61
2021/09/21 02:19:43;;;;;;;;;;;;;;;21.81;62.94;100428.63;2077190;28;20043;-61
2021/09/21 02:20:43;;;;;;;;;;;;;;;21.81;63.03;100428.63;2078199;28;19952;-61
2021/09/21 02:21:45;;;;;;;;;;;;;;;21.81;63.03;100431.38;2075154;28;19971;-62
2021/09/21 02:22:45;;;;;;;;;;;;;;;21.81;62.86;100423.13;2074840;28;20019;-61
2021/09/21 02:23:46;;;;;;;;;;;;;;;21.80;63.01;100421.41;2079195;28;19917;-61
2021/09/21 02:25:11;;;;;;;;;;;;;;;21.81;63.04;100428.63;2076043;28;19955;-62
2021/09/21 02:26:11;;;;;;;;;;;;;;;21.82;63.16;100419.34;2074038;28;20863;-61
2021/09/21 02:27:11;;;;;;;;;;;;;;;21.82;63.19;100430.34;2078843;28;20004;-62
2021/09/21 02:28:12;;;;;;;;;;;;;;;21.81;63.03;100423.13;2078240;28;19920;-61
2021/09/21 02:29:12;;;;;;;;;;;;;;;21.81;63.24;100433.25;2078523;28;19917;-61
2021/09/21 02:30:13;;;;;;;;;;;;;;;21.81;62.96;100422.28;2078274;28;20360;-62
2021/09/21 02:31:13;;;;;;;;;;;;;;;21.81;62.98;100416.78;2075120;28;19916;-61
2021/09/21 02:32:13;;;;;;;;;;;;;;;21.80;63.11;100424.16;2078030;28;19908;-61
2021/09/21 02:33:14;;;;;;;;;;;;;;;21.80;63.23;100421.41;2079505;28;20245;-62
2021/09/21 02:34:14;;;;;;;;;;;;;;;21.81;63.01;100428.63;2079182;28;20283;-62
2021/09/21 02:35:15;;;;;;;;;;;;;;;21.80;63.08;100421.41;2078779;28;20043;-61
2021/09/21 02:36:16;;;;;;;;;;;;;;;21.80;63.15;100415.94;2077100;28;19956;-62
2021/09/21 02:37:17;;;;;;;;;;;;;;;21.80;63.10;100421.41;2078550;28;20311;-61
2021/09/21 02:38:17;;;;;;;;;;;;;;;21.81;63.09;100420.38;2079872;28;19988;-61
2021/09/21 02:39:18;;;;;;;;;;;;;;;21.80;63.04;100421.41;2078131;28;19971;-62
2021/09/21 02:40:18;;;;;;;;;;;;;;;21.80;63.03;100421.41;2078722;28;19916;-61
2021/09/21 02:41:18;;;;;;;;;;;;;;;21.80;63.04;100426.91;2069845;28;20377;-61
2021/09/21 02:42:19;;;;;;;;;;;;;;;21.80;62.86;100424.16;2077793;28;20350;-61
2021/09/21 02:43:19;;;;;;;;;;;;;;;21.80;62.95;100421.41;2071430;28;19913;-61
2021/09/21 02:44:20;;;;;;;;;;;;;;;21.80;62.90;100421.41;2075824;28;19909;-61
2021/09/21 02:45:20;;;;;;;;;;;;;;;21.81;63.03;100427.75;2078259;28;19913;-61
2021/09/21 02:46:21;;;;;;;;;;;;;;;21.80;63.06;100421.41;2078104;28;19921;-61
2021/09/21 02:47:21;;;;;;;;;;;;;;;21.79;62.87;100425.16;2078422;28;19909;-62
2021/09/21 02:48:21;;;;;;;;;;;;;;;21.81;63.12;100428.63;2078932;28;19916;-61
2021/09/21 02:49:21;;;;;;;;;;;;;;;21.80;63.12;100426.03;2078310;28;19920;-61
2021/09/21 02:50:22;;;;;;;;;;;;;;;21.80;62.82;100420.53;2078374;28;19909;-61
2021/09/21 02:51:22;;;;;;;;;;;;;;;21.80;63.00;100426.03;2076220;28;19924;-61
2021/09/21 02:52:22;;;;;;;;;;;;;;;21.80;63.08;100426.03;2076584;28;19974;-61
2021/09/21 02:53:23;;;;;;;;;;;;;;;21.80;63.02;100426.91;2079140;28;19909;-61
2021/09/21 02:54:23;;;;;;;;;;;;;;;21.80;63.28;100426.91;2079022;28;19909;-62
2021/09/21 02:55:24;;;;;;;;;;;;;;;21.80;63.06;100432.41;2078891;28;20363;-62
2021/09/21 02:56:24;;;;;;;;;;;;;;;21.80;63.02;100420.53;2079140;28;19940;-61
2021/09/21 02:57:24;;;;;;;;;;;;;;;21.80;63.11;100415.94;2078724;28;20261;-61
2021/09/21 02:58:24;;;;;;;;;;;;;;;21.79;63.03;100425.16;2072184;28;20581;-61
2021/09/21 02:59:25;;;;;;;;;;;;;;;21.80;63.05;100421.41;2076390;28;19917;-62
2021/09/21 03:00:27;;;;;;;;;;;;;;;21.80;62.97;100418.69;2073629;28;20427;-61
2021/09/21 03:01:27;;;;;;;;;;;;;;;21.80;62.94;100424.16;2078949;28;20387;-61
2021/09/21 03:02:32;;;;;;;;;;;;;;;21.80;63.03;100421.41;2078715;28;20014;-61
2021/09/21 03:03:40;;;;;;;;;;;;;;;21.79;63.03;100416.94;2079337;28;19913;-61
2021/09/21 03:04:48;;;;;;;;;;;;;;;21.79;63.14;100419.69;2077453;28;19913;-61
2021/09/21 03:06:10;;;;;;;;;;;;;;;21.79;62.87;100416.94;2075639;28;20312;-61
2021/09/21 03:07:14;;;;;;;;;;;;;;;21.79;63.07;100418.81;2074109;28;19921;-61
2021/09/21 03:08:17;;;;;;;;;;;;;;;21.78;62.90;100417.97;2071487;28;19960;-62
2021/09/21 03:11:38;;;;;;;;;;;;;;;21.79;63.08;100410.59;2078851;28;19913;-61
2021/09/21 03:17:26;;;;;;;;;;;;;;;21.80;62.86;100415.03;2076943;28;19936;-61
2021/09/21 03:18:26;;;;;;;;;;;;;;;21.78;62.75;100412.47;2078602;28;19913;-61
2021/09/21 03:19:27;;;;;;;;;;;;;;;21.78;62.97;100417.97;2079018;28;19928;-61
2021/09/21 03:20:28;;;;;;;;;;;;;;;21.79;63.07;100418.81;2078995;28;20442;-62
2021/09/21 03:21:28;;;;;;;;;;;;;;;21.78;62.79;100425.34;2079487;28;19917;-61
2021/09/21 03:22:28;;;;;;;;;;;;;;;21.78;62.98;100420.72;2079763;28;19913;-61
2021/09/21 03:23:28;;;;;;;;;;;;;;;21.78;62.93;100428.09;2078842;28;19996;-61
2021/09/21 03:24:30;;;;;;;;;;;;;;;21.78;62.90;100423.47;2080627;28;19909;-61
2021/09/21 03:25:30;;;;;;;;;;;;;;;21.79;62.87;100425.16;2080507;28;19950;-61
2021/09/21 03:26:31;;;;;;;;;;;;;;;21.78;62.98;100426.19;2080171;28;19917;-61
2021/09/21 03:27:31;;;;;;;;;;;;;;;21.78;62.83;100428.94;2080468;28;19921;-62
2021/09/21 03:28:31;;;;;;;;;;;;;;;21.78;63.05;100423.47;2080890;28;19912;-62
2021/09/21 03:29:31;;;;;;;;;;;;;;;21.78;62.84;100426.19;2080099;28;19956;-61
2021/09/21 03:30:32;;;;;;;;;;;;;;;21.79;62.88;100430.66;2080790;28;19913;-61
2021/09/21 03:31:32;;;;;;;;;;;;;;;21.77;62.90;100426.34;2076998;28;19921;-61
2021/09/21 03:32:32;;;;;;;;;;;;;;;21.79;62.94;100427.06;2079703;28;20071;-61
2021/09/21 03:33:33;;;;;;;;;;;;;;;21.77;63.04;100429.94;2080094;28;19913;-61
2021/09/21 03:34:36;;;;;;;;;;;;;;;21.78;62.97;100428.09;2080640;28;19916;-62
2021/09/21 03:35:37;;;;;;;;;;;;;;;21.77;62.88;100421.72;2080923;28;19916;-61
2021/09/21 03:36:37;;;;;;;;;;;;;;;21.77;62.97;100427.22;2074309;28;19914;-61
2021/09/21 03:37:37;;;;;;;;;;;;;;;21.77;63.06;100429.09;2080060;28;20376;-61
2021/09/21 03:38:38;;;;;;;;;;;;;;;21.78;62.96;100428.09;2079150;28;20191;-62
2021/09/21 03:39:39;;;;;;;;;;;;;;;21.77;62.89;100429.94;2082644;28;20683;-62
2021/09/21 03:40:39;;;;;;;;;;;;;;;21.76;63.13;100428.25;2084813;28;19909;-61
2021/09/21 03:41:40;;;;;;;;;;;;;;;21.76;62.93;100436.47;2078191;28;19913;-61
2021/09/21 03:42:40;;;;;;;;;;;;;;;21.76;62.88;100430.97;2079296;28;19913;-62
2021/09/21 03:43:40;;;;;;;;;;;;;;;21.76;62.96;100430.97;2080505;28;19955;-61
2021/09/21 03:44:41;;;;;;;;;;;;;;;21.77;63.00;100434.59;2080061;28;19917;-61
2021/09/21 03:45:41;;;;;;;;;;;;;;;21.77;62.98;100437.31;2080656;28;19975;-62
2021/09/21 03:46:42;;;;;;;;;;;;;;;21.76;62.85;100433.72;2075075;28;19913;-62
2021/09/21 03:47:42;;;;;;;;;;;;;;;21.76;62.91;100436.47;2079447;28;20214;-62
2021/09/21 03:48:42;;;;;;;;;;;;;;;21.76;62.75;100430.13;2077251;28;20780;-62
2021/09/21 03:49:43;;;;;;;;;;;;;;;21.76;62.97;100430.97;2075692;28;19991;-62
2021/09/21 03:50:43;;;;;;;;;;;;;;;21.76;62.82;100430.97;2072367;28;19975;-62
2021/09/21 03:51:43;;;;;;;;;;;;;;;21.76;63.04;100430.97;2079954;28;19909;-60
2021/09/21 03:52:44;;;;;;;;;;;;;;;21.76;62.93;100430.97;2080614;28;20484;-61
2021/09/21 03:54:21;;;;;;;;;;;;;;;21.76;62.93;100428.25;2080573;28;19913;-61
2021/09/21 03:55:21;;;;;;;;;;;;;;;21.77;62.85;100429.94;2079966;28;19913;-61
2021/09/21 03:56:22;;;;;;;;;;;;;;;21.75;63.11;100426.50;2079588;28;19988;-61
2021/09/21 03:57:22;;;;;;;;;;;;;;;21.75;62.88;100429.25;2079629;28;19909;-61
2021/09/21 03:58:22;;;;;;;;;;;;;;;21.76;62.81;100430.13;2079913;28;19923;-61
2021/09/21 03:59:24;;;;;;;;;;;;;;;21.75;62.87;100429.25;2080111;28;19958;-61
2021/09/21 04:00:25;;;;;;;;;;;;;;;21.75;62.80;100426.50;2080098;28;19909;-62
2021/09/21 04:01:25;;;;;;;;;;;;;;;21.76;63.06;100428.25;2076303;28;20233;-61
2021/09/21 04:02:34;;;;;;;;;;;;;;;21.75;62.94;100434.72;2080321;28;20293;-61
2021/09/21 04:03:35;;;;;;;;;;;;;;;21.75;62.88;100428.38;2087467;28;19912;-61
2021/09/21 04:04:35;;;;;;;;;;;;;;;21.75;62.85;100434.72;2084729;28;19923;-61
2021/09/21 04:05:36;;;;;;;;;;;;;;;21.75;62.86;100433.88;2073547;28;19917;-61
2021/09/21 04:06:36;;;;;;;;;;;;;;;21.75;62.87;100432.00;2082548;28;19915;-62
2021/09/21 04:07:37;;;;;;;;;;;;;;;21.75;62.64;100437.47;2082411;28;19959;-62
2021/09/21 04:08:37;;;;;;;;;;;;;;;21.75;62.76;100432.00;2076700;28;19916;-61
2021/09/21 04:09:37;;;;;;;;;;;;;;;21.75;62.93;100431.13;2080287;28;19913;-62
2021/09/21 04:11:09;;;;;;;;;;;;;;;21.74;62.79;100438.50;2079045;28;19915;-61
2021/09/21 04:12:09;;;;;;;;;;;;;;;21.74;63.11;100438.50;2079575;28;19909;-62
2021/09/21 04:13:09;;;;;;;;;;;;;;;21.74;62.88;100433.03;2078733;28;20047;-62
2021/09/21 04:14:12;;;;;;;;;;;;;;;21.74;62.79;100435.75;2080570;28;19924;-61
2021/09/21 04:15:43;;;;;;;;;;;;;;;21.75;62.91;100442.09;2077135;28;20300;-61
2021/09/21 04:16:43;;;;;;;;;;;;;;;21.74;62.75;100432.16;2076970;28;19917;-61
2021/09/21 04:17:44;;;;;;;;;;;;;;;21.74;62.81;100433.03;2079163;28;19951;-61
2021/09/21 04:18:44;;;;;;;;;;;;;;;21.74;62.83;100438.50;2080380;28;19908;-61
2021/09/21 04:19:44;;;;;;;;;;;;;;;21.74;62.89;100432.16;2080090;28;19917;-62
2021/09/21 04:20:45;;;;;;;;;;;;;;;21.73;62.57;100436.78;2080167;28;19919;-61
2021/09/21 04:21:45;;;;;;;;;;;;;;;21.73;62.64;100436.78;2079784;28;20025;-61
2021/09/21 04:23:01;;;;;;;;;;;;;;;21.73;62.67;100433.16;2079842;28;19936;-62
2021/09/21 04:24:01;;;;;;;;;;;;;;;21.74;62.61;100434.91;2080043;28;20418;-61
2021/09/21 04:25:02;;;;;;;;;;;;;;;21.74;62.73;100433.03;2079363;28;20303;-61
2021/09/21 04:26:02;;;;;;;;;;;;;;;21.73;62.83;100435.91;2074421;28;20015;-62
2021/09/21 04:27:03;;;;;;;;;;;;;;;21.73;62.69;100431.31;2079751;28;19917;-61
2021/09/21 04:28:03;;;;;;;;;;;;;;;21.72;62.73;100429.56;2078974;28;19915;-61
2021/09/21 04:29:04;;;;;;;;;;;;;;;21.72;62.93;100429.56;2072172;28;20115;-62
2021/09/21 04:30:04;;;;;;;;;;;;;;;21.73;62.61;100430.41;2071874;28;20007;-61
2021/09/21 04:31:11;;;;;;;;;;;;;;;21.73;62.84;100430.41;2075353;28;20016;-62
2021/09/21 04:32:14;;;;;;;;;;;;;;;21.73;62.92;100428.56;2078809;28;20015;-62
2021/09/21 04:33:36;;;;;;;;;;;;;;;21.73;62.84;100424.94;2076916;28;19983;-62
2021/09/21 04:34:36;;;;;;;;;;;;;;;21.73;63.12;100431.31;2076307;28;19921;-62
2021/09/21 04:35:46;;;;;;;;;;;;;;;21.73;63.00;100430.41;2080827;28;19913;-62
2021/09/21 04:36:47;;;;;;;;;;;;;;;21.73;62.89;100435.91;2079553;28;19920;-62
2021/09/21 04:37:47;;;;;;;;;;;;;;;21.72;63.05;100435.06;2079972;28;19915;-62
2021/09/21 04:38:48;;;;;;;;;;;;;;;21.74;62.89;100435.75;2072032;28;19909;-62
2021/09/21 04:39:48;;;;;;;;;;;;;;;21.72;62.95;100429.56;2076204;28;19909;-62
2021/09/21 04:40:48;;;;;;;;;;;;;;;21.73;62.84;100441.41;2080871;28;20143;-62
2021/09/21 04:41:48;;;;;;;;;;;;;;;21.72;62.82;100435.06;2078981;28;19909;-62
2021/09/21 04:42:49;;;;;;;;;;;;;;;21.72;62.82;100431.47;2079540;28;19919;-62
2021/09/21 04:43:52;;;;;;;;;;;;;;;21.71;62.83;100433.34;2072825;28;19909;-62
2021/09/21 04:44:52;;;;;;;;;;;;;;;21.72;63.11;100435.06;2076512;28;19908;-62
2021/09/21 04:45:53;;;;;;;;;;;;;;;21.73;63.06;100441.41;2078558;28;20405;-62
2021/09/21 04:46:53;;;;;;;;;;;;;;;21.72;62.96;100440.53;2080299;28;19963;-62
2021/09/21 04:47:53;;;;;;;;;;;;;;;21.72;62.70;100446.03;2086958;28;19909;-62
2021/09/21 04:49:13;;;;;;;;;;;;;;;21.72;62.80;100440.53;2081689;28;19948;-62
2021/09/21 04:50:14;;;;;;;;;;;;;;;21.72;62.73;100435.06;2075369;28;19913;-62
2021/09/21 04:51:45;;;;;;;;;;;;;;;21.72;62.97;100440.53;2080175;28;20750;-62
2021/09/21 04:52:46;;;;;;;;;;;;;;;21.73;63.02;100445.03;2076302;28;19909;-62
2021/09/21 04:53:49;;;;;;;;;;;;;;;21.72;62.73;100440.53;2077635;28;19959;-62
2021/09/21 04:54:49;;;;;;;;;;;;;;;21.73;62.76;100445.03;2077226;28;20194;-62
2021/09/21 04:55:50;;;;;;;;;;;;;;;21.72;62.77;100443.28;2075727;28;19910;-62
2021/09/21 04:56:50;;;;;;;;;;;;;;;21.72;62.64;100440.53;2077748;28;20396;-62
2021/09/21 04:57:50;;;;;;;;;;;;;;;21.71;62.72;100444.31;2079982;28;19963;-62
2021/09/21 04:58:50;;;;;;;;;;;;;;;21.71;62.71;100438.84;2079805;28;20395;-63
2021/09/21 04:59:51;;;;;;;;;;;;;;;21.71;62.42;100443.47;2079390;28;20447;-62
2021/09/21 05:00:51;;;;;;;;;;;;;;;21.70;62.75;100441.72;2077168;28;19949;-62
2021/09/21 05:01:51;;;;;;;;;;;;;;;21.71;62.63;100444.31;2077325;28;19916;-62
2021/09/21 05:02:52;;;;;;;;;;;;;;;21.70;62.49;100450.81;2079998;28;19916;-62
2021/09/21 05:03:52;;;;;;;;;;;;;;;21.70;62.71;100448.06;2079353;28;19917;-62
2021/09/21 05:04:52;;;;;;;;;;;;;;;21.70;62.65;100442.56;2079151;28;20017;-62
2021/09/21 05:05:53;;;;;;;;;;;;;;;21.70;62.57;100449.97;2076158;28;19913;-62
2021/09/21 05:06:53;;;;;;;;;;;;;;;21.68;62.50;100444.66;2077317;28;19917;-62
2021/09/21 05:07:53;;;;;;;;;;;;;;;21.69;62.56;100438.13;2077692;28;19908;-62
2021/09/21 05:08:54;;;;;;;;;;;;;;;21.68;62.54;100444.66;2079409;28;19913;-62
2021/09/21 05:09:54;;;;;;;;;;;;;;;21.68;62.65;100447.38;2076837;28;19959;-62
2021/09/21 05:10:54;;;;;;;;;;;;;;;21.68;62.44;100452.88;2072887;28;19953;-60
2021/09/21 05:11:55;;;;;;;;;;;;;;;21.70;62.67;100445.31;2064325;28;19929;-60
2021/09/21 05:12:56;;;;;;;;;;;;;;;21.72;62.69;100446.03;2066951;28;19921;-65
2021/09/21 05:13:56;;;;;;;;;;;;;;;21.72;62.34;100443.28;2066353;28;20007;-60
2021/09/21 05:14:56;;;;;;;;;;;;;;;21.73;62.60;100447.78;2067972;28;19967;-59
2021/09/21 05:15:59;;;;;;;;;;;;;;;21.73;62.56;100453.25;2064858;28;19913;-59
2021/09/21 05:17:00;;;;;;;;;;;;;;;21.73;62.57;100442.28;2062175;28;20297;-60
2021/09/21 05:18:00;;;;;;;;;;;;;;;21.74;62.92;100443.13;2063510;28;19943;-59
2021/09/21 05:19:01;;;;;;;;;;;;;;;21.73;62.81;100442.28;2063563;28;19921;-60
2021/09/21 05:20:01;;;;;;;;;;;;;;;21.73;62.55;100446.88;2060049;28;20365;-59
2021/09/21 05:21:01;;;;;;;;;;;;;;;21.73;62.79;100446.88;2064432;28;20560;-60
2021/09/21 05:22:02;;;;;;;;;;;;;;;21.73;62.45;100441.41;2062516;28;20112;-59
2021/09/21 05:23:11;;;;;;;;;;;;;;;21.73;62.68;100446.88;2065934;28;19915;-59
2021/09/21 05:24:12;;;;;;;;;;;;;;;21.73;62.46;100458.75;2064216;28;20269;-59
2021/09/21 05:25:12;;;;;;;;;;;;;;;21.72;62.29;100462.50;2066862;28;19999;-59
2021/09/21 05:26:12;;;;;;;;;;;;;;;21.72;62.42;100457.00;2068643;28;19927;-59
2021/09/21 05:27:25;;;;;;;;;;;;;;;21.73;62.56;100461.50;2066142;28;19921;-59
2021/09/21 05:28:25;;;;;;;;;;;;;;;21.72;62.69;100462.50;2061770;28;20361;-59
2021/09/21 05:29:26;;;;;;;;;;;;;;;21.72;62.62;100462.50;2060963;28;20066;-59